sensor_id;sensor_type;location;lat;lon;timestamp;P1;durP1;ratioP1;P2;durP2;ratioP2
78960;SDS011;68362;45.970;12.646;2023-09-07T00:00:28;2.63;;;2.28;;
78960;SDS011;68362;45.970;12.646;2023-09-07T00:01:51;3.42;;;2.58;;
78960;SDS011;68362;45.970;12.646;2023-09-07T00:02:54;3.45;;;2.65;;
78960;SDS011;68362;45.970;12.646;2023-09-07T00:03:57;3.28;;;2.50;;
78960;SDS011;68362;45.970;12.646;2023-09-07T00:04:59;3.05;;;2.40;;
78960;SDS011;68362;45.970;12.646;2023-09-07T00:06:01;3.05;;;2.10;;
78960;SDS011;68362;45.970;12.646;2023-09-07T00:07:04;2.47;;;2.20;;
78960;SDS011;68362;45.970;12.646;2023-09-07T00:08:06;5.05;;;2.33;;
78960;SDS011;68362;45.970;12.646;2023-09-07T00:09:08;3.17;;;2.42;;
78960;SDS011;68362;45.970;12.646;2023-09-07T00:10:10;2.85;;;2.40;;
78960;SDS011;68362;45.970;12.646;2023-09-07T00:11:12;2.45;;;1.98;;
78960;SDS011;68362;45.970;12.646;2023-09-07T00:12:14;4.07;;;2.72;;
78960;SDS011;68362;45.970;12.646;2023-09-07T00:13:16;3.05;;;2.58;;
78960;SDS011;68362;45.970;12.646;2023-09-07T00:14:19;3.28;;;2.40;;
78960;SDS011;68362;45.970;12.646;2023-09-07T00:16:23;3.88;;;2.10;;
78960;SDS011;68362;45.970;12.646;2023-09-07T00:17:26;4.30;;;2.55;;
78960;SDS011;68362;45.970;12.646;2023-09-07T00:18:28;4.38;;;2.33;;
78960;SDS011;68362;45.970;12.646;2023-09-07T00:19:31;3.17;;;2.25;;
78960;SDS011;68362;45.970;12.646;2023-09-07T00:20:35;4.15;;;2.45;;
78960;SDS011;68362;45.970;12.646;2023-09-07T00:21:37;4.18;;;2.35;;
78960;SDS011;68362;45.970;12.646;2023-09-07T00:22:39;2.50;;;2.10;;
78960;SDS011;68362;45.970;12.646;2023-09-07T00:23:42;3.22;;;2.78;;
78960;SDS011;68362;45.970;12.646;2023-09-07T00:24:44;3.97;;;2.60;;
78960;SDS011;68362;45.970;12.646;2023-09-07T00:25:47;3.85;;;2.58;;
78960;SDS011;68362;45.970;12.646;2023-09-07T00:26:50;2.75;;;2.40;;
78960;SDS011;68362;45.970;12.646;2023-09-07T00:27:52;2.50;;;2.08;;
78960;SDS011;68362;45.970;12.646;2023-09-07T00:28:54;3.28;;;2.50;;
78960;SDS011;68362;45.970;12.646;2023-09-07T00:29:56;5.22;;;2.15;;
78960;SDS011;68362;45.970;12.646;2023-09-07T00:30:58;3.15;;;2.45;;
78960;SDS011;68362;45.970;12.646;2023-09-07T00:32:01;5.85;;;2.50;;
78960;SDS011;68362;45.970;12.646;2023-09-07T00:33:03;3.10;;;2.40;;
78960;SDS011;68362;45.970;12.646;2023-09-07T00:34:05;2.83;;;2.17;;
78960;SDS011;68362;45.970;12.646;2023-09-07T00:35:08;6.28;;;2.65;;
78960;SDS011;68362;45.970;12.646;2023-09-07T00:36:10;3.25;;;2.60;;
78960;SDS011;68362;45.970;12.646;2023-09-07T00:37:12;2.85;;;2.20;;
78960;SDS011;68362;45.970;12.646;2023-09-07T00:38:14;3.28;;;2.63;;
78960;SDS011;68362;45.970;12.646;2023-09-07T00:39:17;3.80;;;2.63;;
78960;SDS011;68362;45.970;12.646;2023-09-07T00:40:19;4.88;;;2.60;;
78960;SDS011;68362;45.970;12.646;2023-09-07T00:41:21;3.65;;;2.78;;
78960;SDS011;68362;45.970;12.646;2023-09-07T00:42:23;3.28;;;2.22;;
78960;SDS011;68362;45.970;12.646;2023-09-07T00:43:25;4.60;;;3.50;;
78960;SDS011;68362;45.970;12.646;2023-09-07T00:44:28;5.32;;;3.00;;
78960;SDS011;68362;45.970;12.646;2023-09-07T00:45:30;8.13;;;3.63;;
78960;SDS011;68362;45.970;12.646;2023-09-07T00:46:32;6.03;;;3.15;;
78960;SDS011;68362;45.970;12.646;2023-09-07T00:47:35;3.67;;;2.60;;
78960;SDS011;68362;45.970;12.646;2023-09-07T00:48:40;4.53;;;3.00;;
78960;SDS011;68362;45.970;12.646;2023-09-07T00:49:42;4.78;;;3.20;;
78960;SDS011;68362;45.970;12.646;2023-09-07T00:50:45;4.25;;;3.13;;
78960;SDS011;68362;45.970;12.646;2023-09-07T00:51:47;5.75;;;3.05;;
78960;SDS011;68362;45.970;12.646;2023-09-07T00:52:50;5.50;;;3.33;;
78960;SDS011;68362;45.970;12.646;2023-09-07T00:54:55;5.00;;;3.00;;
78960;SDS011;68362;45.970;12.646;2023-09-07T00:55:58;7.38;;;3.72;;
78960;SDS011;68362;45.970;12.646;2023-09-07T00:57:01;4.00;;;2.58;;
78960;SDS011;68362;45.970;12.646;2023-09-07T00:58:04;3.78;;;2.67;;
78960;SDS011;68362;45.970;12.646;2023-09-07T00:59:07;5.00;;;3.55;;
78960;SDS011;68362;45.970;12.646;2023-09-07T01:00:09;5.78;;;3.40;;
78960;SDS011;68362;45.970;12.646;2023-09-07T01:01:12;5.63;;;3.28;;
78960;SDS011;68362;45.970;12.646;2023-09-07T01:02:15;5.72;;;3.72;;
78960;SDS011;68362;45.970;12.646;2023-09-07T01:03:17;6.60;;;3.30;;
78960;SDS011;68362;45.970;12.646;2023-09-07T01:04:19;4.78;;;2.90;;
78960;SDS011;68362;45.970;12.646;2023-09-07T01:05:23;5.18;;;3.53;;
78960;SDS011;68362;45.970;12.646;2023-09-07T01:06:30;5.53;;;3.42;;
78960;SDS011;68362;45.970;12.646;2023-09-07T01:07:38;5.75;;;3.22;;
78960;SDS011;68362;45.970;12.646;2023-09-07T01:08:46;6.82;;;3.47;;
78960;SDS011;68362;45.970;12.646;2023-09-07T01:09:52;4.93;;;3.35;;
78960;SDS011;68362;45.970;12.646;2023-09-07T01:10:57;6.68;;;3.22;;
78960;SDS011;68362;45.970;12.646;2023-09-07T01:11:59;4.78;;;3.15;;
78960;SDS011;68362;45.970;12.646;2023-09-07T01:13:02;5.10;;;3.25;;
78960;SDS011;68362;45.970;12.646;2023-09-07T01:14:04;4.32;;;3.05;;
78960;SDS011;68362;45.970;12.646;2023-09-07T01:15:07;5.57;;;3.60;;
78960;SDS011;68362;45.970;12.646;2023-09-07T01:16:10;6.43;;;3.55;;
78960;SDS011;68362;45.970;12.646;2023-09-07T01:17:13;6.03;;;3.85;;
78960;SDS011;68362;45.970;12.646;2023-09-07T01:18:16;6.30;;;3.47;;
78960;SDS011;68362;45.970;12.646;2023-09-07T01:19:24;5.97;;;3.75;;
78960;SDS011;68362;45.970;12.646;2023-09-07T01:20:27;5.00;;;3.15;;
78960;SDS011;68362;45.970;12.646;2023-09-07T01:21:34;6.15;;;3.28;;
78960;SDS011;68362;45.970;12.646;2023-09-07T01:22:38;4.90;;;3.10;;
78960;SDS011;68362;45.970;12.646;2023-09-07T01:23:41;5.35;;;3.00;;
78960;SDS011;68362;45.970;12.646;2023-09-07T01:24:45;4.22;;;3.10;;
78960;SDS011;68362;45.970;12.646;2023-09-07T01:25:48;4.47;;;2.70;;
78960;SDS011;68362;45.970;12.646;2023-09-07T01:26:52;5.55;;;3.10;;
78960;SDS011;68362;45.970;12.646;2023-09-07T01:27:55;5.05;;;2.53;;
78960;SDS011;68362;45.970;12.646;2023-09-07T01:28:57;8.40;;;2.97;;
78960;SDS011;68362;45.970;12.646;2023-09-07T01:29:59;4.88;;;2.42;;
78960;SDS011;68362;45.970;12.646;2023-09-07T01:31:02;3.65;;;2.83;;
78960;SDS011;68362;45.970;12.646;2023-09-07T01:32:05;2.90;;;2.42;;
78960;SDS011;68362;45.970;12.646;2023-09-07T01:34:10;3.28;;;2.92;;
78960;SDS011;68362;45.970;12.646;2023-09-07T01:35:13;14.10;;;3.42;;
78960;SDS011;68362;45.970;12.646;2023-09-07T01:36:18;4.10;;;3.33;;
78960;SDS011;68362;45.970;12.646;2023-09-07T01:37:21;4.22;;;2.58;;
78960;SDS011;68362;45.970;12.646;2023-09-07T01:38:23;3.80;;;2.80;;
78960;SDS011;68362;45.970;12.646;2023-09-07T01:39:25;2.97;;;2.67;;
78960;SDS011;68362;45.970;12.646;2023-09-07T01:40:28;3.85;;;2.80;;
78960;SDS011;68362;45.970;12.646;2023-09-07T01:41:30;6.47;;;2.75;;
78960;SDS011;68362;45.970;12.646;2023-09-07T01:42:33;5.25;;;2.50;;
78960;SDS011;68362;45.970;12.646;2023-09-07T01:43:35;5.05;;;3.03;;
78960;SDS011;68362;45.970;12.646;2023-09-07T01:44:37;4.72;;;3.78;;
78960;SDS011;68362;45.970;12.646;2023-09-07T01:45:40;3.47;;;3.17;;
78960;SDS011;68362;45.970;12.646;2023-09-07T01:46:42;5.20;;;3.30;;
78960;SDS011;68362;45.970;12.646;2023-09-07T01:47:45;4.82;;;3.47;;
78960;SDS011;68362;45.970;12.646;2023-09-07T01:48:47;3.88;;;3.20;;
78960;SDS011;68362;45.970;12.646;2023-09-07T01:49:49;4.78;;;2.92;;
78960;SDS011;68362;45.970;12.646;2023-09-07T01:50:52;5.80;;;3.53;;
78960;SDS011;68362;45.970;12.646;2023-09-07T01:51:56;6.13;;;3.70;;
78960;SDS011;68362;45.970;12.646;2023-09-07T01:52:58;4.75;;;3.38;;
78960;SDS011;68362;45.970;12.646;2023-09-07T01:54:00;4.70;;;3.42;;
78960;SDS011;68362;45.970;12.646;2023-09-07T01:55:02;5.22;;;3.47;;
78960;SDS011;68362;45.970;12.646;2023-09-07T01:56:05;3.88;;;3.42;;
78960;SDS011;68362;45.970;12.646;2023-09-07T01:57:07;4.93;;;3.17;;
78960;SDS011;68362;45.970;12.646;2023-09-07T01:58:09;6.18;;;3.67;;
78960;SDS011;68362;45.970;12.646;2023-09-07T01:59:11;4.07;;;3.60;;
78960;SDS011;68362;45.970;12.646;2023-09-07T02:00:14;5.53;;;3.35;;
78960;SDS011;68362;45.970;12.646;2023-09-07T02:01:26;6.57;;;3.00;;
78960;SDS011;68362;45.970;12.646;2023-09-07T02:02:33;4.45;;;3.10;;
78960;SDS011;68362;45.970;12.646;2023-09-07T02:03:35;4.18;;;3.58;;
78960;SDS011;68362;45.970;12.646;2023-09-07T02:04:37;5.30;;;3.20;;
78960;SDS011;68362;45.970;12.646;2023-09-07T02:05:39;4.78;;;3.35;;
78960;SDS011;68362;45.970;12.646;2023-09-07T02:06:41;3.47;;;2.90;;
78960;SDS011;68362;45.970;12.646;2023-09-07T02:07:43;4.65;;;3.88;;
78960;SDS011;68362;45.970;12.646;2023-09-07T02:08:46;4.35;;;2.78;;
78960;SDS011;68362;45.970;12.646;2023-09-07T02:09:48;3.92;;;2.92;;
78960;SDS011;68362;45.970;12.646;2023-09-07T02:10:50;3.88;;;2.78;;
78960;SDS011;68362;45.970;12.646;2023-09-07T02:11:53;3.65;;;3.00;;
78960;SDS011;68362;45.970;12.646;2023-09-07T02:12:55;4.22;;;2.72;;
78960;SDS011;68362;45.970;12.646;2023-09-07T02:13:59;4.85;;;3.53;;
78960;SDS011;68362;45.970;12.646;2023-09-07T02:15:02;4.90;;;2.47;;
78960;SDS011;68362;45.970;12.646;2023-09-07T02:16:06;7.15;;;3.03;;
78960;SDS011;68362;45.970;12.646;2023-09-07T02:18:11;4.60;;;2.85;;
78960;SDS011;68362;45.970;12.646;2023-09-07T02:19:13;4.07;;;2.83;;
78960;SDS011;68362;45.970;12.646;2023-09-07T02:20:15;3.38;;;2.47;;
78960;SDS011;68362;45.970;12.646;2023-09-07T02:21:19;5.30;;;2.75;;
78960;SDS011;68362;45.970;12.646;2023-09-07T02:22:21;4.85;;;2.90;;
78960;SDS011;68362;45.970;12.646;2023-09-07T02:23:23;3.65;;;2.80;;
78960;SDS011;68362;45.970;12.646;2023-09-07T02:24:25;5.30;;;2.90;;
78960;SDS011;68362;45.970;12.646;2023-09-07T02:25:28;4.55;;;2.75;;
78960;SDS011;68362;45.970;12.646;2023-09-07T02:26:32;8.30;;;2.42;;
78960;SDS011;68362;45.970;12.646;2023-09-07T02:27:35;3.63;;;2.70;;
78960;SDS011;68362;45.970;12.646;2023-09-07T02:28:37;4.03;;;2.75;;
78960;SDS011;68362;45.970;12.646;2023-09-07T02:29:40;3.55;;;2.30;;
78960;SDS011;68362;45.970;12.646;2023-09-07T02:30:42;3.20;;;2.25;;
78960;SDS011;68362;45.970;12.646;2023-09-07T02:31:44;2.78;;;2.15;;
78960;SDS011;68362;45.970;12.646;2023-09-07T02:32:46;3.47;;;2.50;;
78960;SDS011;68362;45.970;12.646;2023-09-07T02:33:49;2.78;;;2.00;;
78960;SDS011;68362;45.970;12.646;2023-09-07T02:34:51;3.00;;;2.60;;
78960;SDS011;68362;45.970;12.646;2023-09-07T02:35:53;2.75;;;2.55;;
78960;SDS011;68362;45.970;12.646;2023-09-07T02:36:55;4.32;;;2.03;;
78960;SDS011;68362;45.970;12.646;2023-09-07T02:37:59;4.03;;;2.47;;
78960;SDS011;68362;45.970;12.646;2023-09-07T02:39:01;3.33;;;2.40;;
78960;SDS011;68362;45.970;12.646;2023-09-07T02:40:04;2.83;;;2.10;;
78960;SDS011;68362;45.970;12.646;2023-09-07T02:41:10;3.35;;;2.53;;
78960;SDS011;68362;45.970;12.646;2023-09-07T02:42:13;3.60;;;2.42;;
78960;SDS011;68362;45.970;12.646;2023-09-07T02:43:15;4.22;;;2.25;;
78960;SDS011;68362;45.970;12.646;2023-09-07T02:44:18;3.08;;;2.33;;
78960;SDS011;68362;45.970;12.646;2023-09-07T02:45:20;2.95;;;2.03;;
78960;SDS011;68362;45.970;12.646;2023-09-07T02:47:25;4.95;;;2.67;;
78960;SDS011;68362;45.970;12.646;2023-09-07T02:48:27;2.88;;;2.20;;
78960;SDS011;68362;45.970;12.646;2023-09-07T02:49:29;2.70;;;2.42;;
78960;SDS011;68362;45.970;12.646;2023-09-07T02:50:32;4.03;;;2.50;;
78960;SDS011;68362;45.970;12.646;2023-09-07T02:51:35;3.85;;;2.10;;
78960;SDS011;68362;45.970;12.646;2023-09-07T02:52:39;2.38;;;1.83;;
78960;SDS011;68362;45.970;12.646;2023-09-07T02:53:41;3.70;;;2.50;;
78960;SDS011;68362;45.970;12.646;2023-09-07T02:54:44;2.60;;;2.40;;
78960;SDS011;68362;45.970;12.646;2023-09-07T02:55:46;3.25;;;2.17;;
78960;SDS011;68362;45.970;12.646;2023-09-07T02:56:48;3.92;;;2.55;;
78960;SDS011;68362;45.970;12.646;2023-09-07T02:57:50;3.30;;;2.58;;
78960;SDS011;68362;45.970;12.646;2023-09-07T02:58:53;3.45;;;2.45;;
78960;SDS011;68362;45.970;12.646;2023-09-07T02:59:55;3.20;;;2.60;;
78960;SDS011;68362;45.970;12.646;2023-09-07T03:00:57;3.70;;;2.50;;
78960;SDS011;68362;45.970;12.646;2023-09-07T03:01:59;2.80;;;2.20;;
78960;SDS011;68362;45.970;12.646;2023-09-07T03:03:02;2.88;;;1.83;;
78960;SDS011;68362;45.970;12.646;2023-09-07T03:04:05;3.20;;;2.40;;
78960;SDS011;68362;45.970;12.646;2023-09-07T03:05:07;3.67;;;2.25;;
78960;SDS011;68362;45.970;12.646;2023-09-07T03:06:11;3.55;;;1.80;;
78960;SDS011;68362;45.970;12.646;2023-09-07T03:07:14;3.92;;;2.70;;
78960;SDS011;68362;45.970;12.646;2023-09-07T03:08:17;3.05;;;2.30;;
78960;SDS011;68362;45.970;12.646;2023-09-07T03:09:19;3.65;;;2.40;;
78960;SDS011;68362;45.970;12.646;2023-09-07T03:10:21;4.38;;;2.50;;
78960;SDS011;68362;45.970;12.646;2023-09-07T03:11:23;3.40;;;2.25;;
78960;SDS011;68362;45.970;12.646;2023-09-07T03:13:29;4.38;;;2.53;;
78960;SDS011;68362;45.970;12.646;2023-09-07T03:14:31;3.45;;;2.72;;
78960;SDS011;68362;45.970;12.646;2023-09-07T03:15:34;3.50;;;3.05;;
78960;SDS011;68362;45.970;12.646;2023-09-07T03:16:36;4.65;;;2.83;;
78960;SDS011;68362;45.970;12.646;2023-09-07T03:17:40;2.72;;;2.22;;
78960;SDS011;68362;45.970;12.646;2023-09-07T03:18:42;3.10;;;2.58;;
78960;SDS011;68362;45.970;12.646;2023-09-07T03:19:45;4.28;;;2.80;;
78960;SDS011;68362;45.970;12.646;2023-09-07T03:20:47;8.23;;;2.60;;
78960;SDS011;68362;45.970;12.646;2023-09-07T03:21:49;2.80;;;2.30;;
78960;SDS011;68362;45.970;12.646;2023-09-07T03:22:51;4.43;;;2.78;;
78960;SDS011;68362;45.970;12.646;2023-09-07T03:23:55;3.08;;;2.00;;
78960;SDS011;68362;45.970;12.646;2023-09-07T03:25:00;3.40;;;2.83;;
78960;SDS011;68362;45.970;12.646;2023-09-07T03:26:02;3.70;;;2.35;;
78960;SDS011;68362;45.970;12.646;2023-09-07T03:27:04;4.30;;;2.42;;
78960;SDS011;68362;45.970;12.646;2023-09-07T03:28:10;4.40;;;2.60;;
78960;SDS011;68362;45.970;12.646;2023-09-07T03:29:12;3.13;;;2.53;;
78960;SDS011;68362;45.970;12.646;2023-09-07T03:30:14;3.08;;;2.30;;
78960;SDS011;68362;45.970;12.646;2023-09-07T03:31:16;3.78;;;2.53;;
78960;SDS011;68362;45.970;12.646;2023-09-07T03:32:19;4.25;;;2.80;;
78960;SDS011;68362;45.970;12.646;2023-09-07T03:33:21;3.03;;;2.45;;
78960;SDS011;68362;45.970;12.646;2023-09-07T03:34:24;13.43;;;3.45;;
78960;SDS011;68362;45.970;12.646;2023-09-07T03:35:26;3.50;;;2.67;;
78960;SDS011;68362;45.970;12.646;2023-09-07T03:36:29;2.92;;;2.15;;
78960;SDS011;68362;45.970;12.646;2023-09-07T03:37:31;4.60;;;2.20;;
78960;SDS011;68362;45.970;12.646;2023-09-07T03:38:33;4.90;;;3.15;;
78960;SDS011;68362;45.970;12.646;2023-09-07T03:39:35;3.78;;;2.67;;
78960;SDS011;68362;45.970;12.646;2023-09-07T03:40:38;2.00;;;1.80;;
78960;SDS011;68362;45.970;12.646;2023-09-07T03:41:40;2.60;;;2.30;;
78960;SDS011;68362;45.970;12.646;2023-09-07T03:42:42;2.53;;;1.90;;
78960;SDS011;68362;45.970;12.646;2023-09-07T03:44:47;4.18;;;2.80;;
78960;SDS011;68362;45.970;12.646;2023-09-07T03:45:49;2.63;;;2.03;;
78960;SDS011;68362;45.970;12.646;2023-09-07T03:46:52;2.83;;;2.08;;
78960;SDS011;68362;45.970;12.646;2023-09-07T03:47:54;2.90;;;1.90;;
78960;SDS011;68362;45.970;12.646;2023-09-07T03:48:57;3.42;;;2.53;;
78960;SDS011;68362;45.970;12.646;2023-09-07T03:49:59;4.93;;;2.30;;
78960;SDS011;68362;45.970;12.646;2023-09-07T03:51:06;3.58;;;2.95;;
78960;SDS011;68362;45.970;12.646;2023-09-07T03:53:13;3.33;;;2.30;;
78960;SDS011;68362;45.970;12.646;2023-09-07T03:54:16;3.20;;;2.00;;
78960;SDS011;68362;45.970;12.646;2023-09-07T03:55:18;3.75;;;2.35;;
78960;SDS011;68362;45.970;12.646;2023-09-07T03:56:23;2.90;;;2.38;;
78960;SDS011;68362;45.970;12.646;2023-09-07T03:57:26;4.10;;;2.03;;
78960;SDS011;68362;45.970;12.646;2023-09-07T03:58:29;3.17;;;2.50;;
78960;SDS011;68362;45.970;12.646;2023-09-07T03:59:31;3.22;;;2.00;;
78960;SDS011;68362;45.970;12.646;2023-09-07T04:00:33;2.20;;;2.00;;
78960;SDS011;68362;45.970;12.646;2023-09-07T04:01:36;3.80;;;2.20;;
78960;SDS011;68362;45.970;12.646;2023-09-07T04:02:38;2.95;;;2.13;;
78960;SDS011;68362;45.970;12.646;2023-09-07T04:03:40;2.63;;;2.10;;
78960;SDS011;68362;45.970;12.646;2023-09-07T04:04:47;3.28;;;2.08;;
78960;SDS011;68362;45.970;12.646;2023-09-07T04:05:51;3.47;;;2.50;;
78960;SDS011;68362;45.970;12.646;2023-09-07T04:06:54;3.67;;;2.20;;
78960;SDS011;68362;45.970;12.646;2023-09-07T04:07:57;4.03;;;2.42;;
78960;SDS011;68362;45.970;12.646;2023-09-07T04:08:59;2.47;;;2.17;;
78960;SDS011;68362;45.970;12.646;2023-09-07T04:10:01;3.03;;;2.40;;
78960;SDS011;68362;45.970;12.646;2023-09-07T04:12:06;3.70;;;2.40;;
78960;SDS011;68362;45.970;12.646;2023-09-07T04:13:09;2.95;;;2.08;;
78960;SDS011;68362;45.970;12.646;2023-09-07T04:14:11;3.20;;;2.20;;
78960;SDS011;68362;45.970;12.646;2023-09-07T04:15:13;2.85;;;2.03;;
78960;SDS011;68362;45.970;12.646;2023-09-07T04:16:16;2.90;;;2.33;;
78960;SDS011;68362;45.970;12.646;2023-09-07T04:17:18;3.75;;;2.70;;
78960;SDS011;68362;45.970;12.646;2023-09-07T04:18:20;2.35;;;2.13;;
78960;SDS011;68362;45.970;12.646;2023-09-07T04:19:23;2.63;;;2.33;;
78960;SDS011;68362;45.970;12.646;2023-09-07T04:20:25;3.25;;;2.50;;
78960;SDS011;68362;45.970;12.646;2023-09-07T04:21:28;4.25;;;2.85;;
78960;SDS011;68362;45.970;12.646;2023-09-07T04:22:30;3.63;;;2.00;;
78960;SDS011;68362;45.970;12.646;2023-09-07T04:23:32;2.35;;;1.95;;
78960;SDS011;68362;45.970;12.646;2023-09-07T04:24:36;3.97;;;2.42;;
78960;SDS011;68362;45.970;12.646;2023-09-07T04:25:38;2.95;;;2.10;;
78960;SDS011;68362;45.970;12.646;2023-09-07T04:26:41;2.67;;;2.13;;
78960;SDS011;68362;45.970;12.646;2023-09-07T04:27:43;2.45;;;2.10;;
78960;SDS011;68362;45.970;12.646;2023-09-07T04:28:45;2.65;;;2.33;;
78960;SDS011;68362;45.970;12.646;2023-09-07T04:29:47;4.93;;;2.40;;
78960;SDS011;68362;45.970;12.646;2023-09-07T04:30:51;2.67;;;2.13;;
78960;SDS011;68362;45.970;12.646;2023-09-07T04:31:54;2.92;;;2.35;;
78960;SDS011;68362;45.970;12.646;2023-09-07T04:32:56;4.40;;;2.28;;
78960;SDS011;68362;45.970;12.646;2023-09-07T04:33:58;3.88;;;2.78;;
78960;SDS011;68362;45.970;12.646;2023-09-07T04:35:00;3.78;;;2.80;;
78960;SDS011;68362;45.970;12.646;2023-09-07T04:37:14;2.97;;;2.17;;
78960;SDS011;68362;45.970;12.646;2023-09-07T04:38:16;3.03;;;2.35;;
78960;SDS011;68362;45.970;12.646;2023-09-07T04:39:19;3.47;;;2.00;;
78960;SDS011;68362;45.970;12.646;2023-09-07T04:40:21;3.70;;;2.53;;
78960;SDS011;68362;45.970;12.646;2023-09-07T04:41:24;3.70;;;2.63;;
78960;SDS011;68362;45.970;12.646;2023-09-07T04:42:26;3.58;;;2.80;;
78960;SDS011;68362;45.970;12.646;2023-09-07T04:43:29;4.38;;;2.25;;
78960;SDS011;68362;45.970;12.646;2023-09-07T04:44:31;2.95;;;2.25;;
78960;SDS011;68362;45.970;12.646;2023-09-07T04:45:33;3.40;;;2.30;;
78960;SDS011;68362;45.970;12.646;2023-09-07T04:46:35;3.45;;;2.30;;
78960;SDS011;68362;45.970;12.646;2023-09-07T04:47:38;4.22;;;2.35;;
78960;SDS011;68362;45.970;12.646;2023-09-07T04:48:40;3.33;;;2.40;;
78960;SDS011;68362;45.970;12.646;2023-09-07T04:49:47;5.55;;;2.58;;
78960;SDS011;68362;45.970;12.646;2023-09-07T04:50:57;3.05;;;2.15;;
78960;SDS011;68362;45.970;12.646;2023-09-07T04:52:00;3.90;;;2.97;;
78960;SDS011;68362;45.970;12.646;2023-09-07T04:53:03;3.15;;;2.10;;
78960;SDS011;68362;45.970;12.646;2023-09-07T04:54:05;4.10;;;2.05;;
78960;SDS011;68362;45.970;12.646;2023-09-07T04:55:07;3.17;;;1.90;;
78960;SDS011;68362;45.970;12.646;2023-09-07T04:56:10;2.90;;;2.10;;
78960;SDS011;68362;45.970;12.646;2023-09-07T04:57:16;4.05;;;2.67;;
78960;SDS011;68362;45.970;12.646;2023-09-07T04:59:23;6.00;;;2.55;;
78960;SDS011;68362;45.970;12.646;2023-09-07T05:00:25;6.10;;;2.38;;
78960;SDS011;68362;45.970;12.646;2023-09-07T05:01:28;4.00;;;2.03;;
78960;SDS011;68362;45.970;12.646;2023-09-07T05:02:30;4.00;;;2.60;;
78960;SDS011;68362;45.970;12.646;2023-09-07T05:03:32;3.85;;;2.50;;
78960;SDS011;68362;45.970;12.646;2023-09-07T05:04:35;4.35;;;2.40;;
78960;SDS011;68362;45.970;12.646;2023-09-07T05:05:38;5.35;;;2.65;;
78960;SDS011;68362;45.970;12.646;2023-09-07T05:06:40;4.38;;;2.75;;
78960;SDS011;68362;45.970;12.646;2023-09-07T05:07:43;3.08;;;2.20;;
78960;SDS011;68362;45.970;12.646;2023-09-07T05:08:46;3.17;;;2.80;;
78960;SDS011;68362;45.970;12.646;2023-09-07T05:09:48;3.30;;;2.50;;
78960;SDS011;68362;45.970;12.646;2023-09-07T05:10:56;3.45;;;2.38;;
78960;SDS011;68362;45.970;12.646;2023-09-07T05:12:02;2.42;;;2.22;;
78960;SDS011;68362;45.970;12.646;2023-09-07T05:13:05;4.40;;;2.83;;
78960;SDS011;68362;45.970;12.646;2023-09-07T05:14:07;4.90;;;3.13;;
78960;SDS011;68362;45.970;12.646;2023-09-07T05:15:09;7.90;;;3.03;;
78960;SDS011;68362;45.970;12.646;2023-09-07T05:16:11;5.30;;;2.67;;
78960;SDS011;68362;45.970;12.646;2023-09-07T05:17:14;3.28;;;2.45;;
78960;SDS011;68362;45.970;12.646;2023-09-07T05:18:16;3.30;;;1.98;;
78960;SDS011;68362;45.970;12.646;2023-09-07T05:19:19;4.50;;;2.67;;
78960;SDS011;68362;45.970;12.646;2023-09-07T05:20:23;3.72;;;2.53;;
78960;SDS011;68362;45.970;12.646;2023-09-07T05:21:25;4.13;;;2.70;;
78960;SDS011;68362;45.970;12.646;2023-09-07T05:22:27;2.75;;;2.30;;
78960;SDS011;68362;45.970;12.646;2023-09-07T05:23:30;3.75;;;2.85;;
78960;SDS011;68362;45.970;12.646;2023-09-07T05:24:32;3.50;;;2.60;;
78960;SDS011;68362;45.970;12.646;2023-09-07T05:25:34;3.47;;;2.08;;
78960;SDS011;68362;45.970;12.646;2023-09-07T05:26:44;3.97;;;2.65;;
78960;SDS011;68362;45.970;12.646;2023-09-07T05:27:46;6.00;;;2.88;;
78960;SDS011;68362;45.970;12.646;2023-09-07T05:28:50;2.95;;;2.25;;
78960;SDS011;68362;45.970;12.646;2023-09-07T05:29:53;5.00;;;2.55;;
78960;SDS011;68362;45.970;12.646;2023-09-07T05:30:55;6.57;;;2.88;;
78960;SDS011;68362;45.970;12.646;2023-09-07T05:31:57;4.50;;;2.72;;
78960;SDS011;68362;45.970;12.646;2023-09-07T05:33:03;5.43;;;2.05;;
78960;SDS011;68362;45.970;12.646;2023-09-07T05:34:06;3.72;;;2.92;;
78960;SDS011;68362;45.970;12.646;2023-09-07T05:35:08;4.00;;;2.47;;
78960;SDS011;68362;45.970;12.646;2023-09-07T05:36:12;3.92;;;3.15;;
78960;SDS011;68362;45.970;12.646;2023-09-07T05:37:14;3.72;;;2.58;;
78960;SDS011;68362;45.970;12.646;2023-09-07T05:38:16;4.68;;;2.50;;
78960;SDS011;68362;45.970;12.646;2023-09-07T05:39:18;4.80;;;2.53;;
78960;SDS011;68362;45.970;12.646;2023-09-07T05:40:21;3.70;;;2.70;;
78960;SDS011;68362;45.970;12.646;2023-09-07T05:41:23;4.75;;;2.75;;
78960;SDS011;68362;45.970;12.646;2023-09-07T05:42:26;2.97;;;2.47;;
78960;SDS011;68362;45.970;12.646;2023-09-07T05:43:28;4.15;;;2.75;;
78960;SDS011;68362;45.970;12.646;2023-09-07T05:44:30;3.80;;;2.40;;
78960;SDS011;68362;45.970;12.646;2023-09-07T05:45:39;4.00;;;2.83;;
78960;SDS011;68362;45.970;12.646;2023-09-07T05:46:42;3.72;;;2.67;;
78960;SDS011;68362;45.970;12.646;2023-09-07T05:47:44;4.80;;;3.00;;
78960;SDS011;68362;45.970;12.646;2023-09-07T05:48:46;4.78;;;2.60;;
78960;SDS011;68362;45.970;12.646;2023-09-07T05:49:49;2.92;;;1.90;;
78960;SDS011;68362;45.970;12.646;2023-09-07T05:50:51;3.00;;;2.38;;
78960;SDS011;68362;45.970;12.646;2023-09-07T05:51:53;4.57;;;2.60;;
78960;SDS011;68362;45.970;12.646;2023-09-07T05:52:55;4.45;;;2.30;;
78960;SDS011;68362;45.970;12.646;2023-09-07T05:53:58;3.13;;;2.50;;
78960;SDS011;68362;45.970;12.646;2023-09-07T05:55:00;3.92;;;2.72;;
78960;SDS011;68362;45.970;12.646;2023-09-07T05:56:02;2.75;;;2.47;;
78960;SDS011;68362;45.970;12.646;2023-09-07T05:57:05;4.28;;;2.75;;
78960;SDS011;68362;45.970;12.646;2023-09-07T05:58:07;3.17;;;2.75;;
78960;SDS011;68362;45.970;12.646;2023-09-07T05:59:10;4.85;;;3.08;;
78960;SDS011;68362;45.970;12.646;2023-09-07T06:00:12;4.65;;;2.88;;
78960;SDS011;68362;45.970;12.646;2023-09-07T06:01:16;8.48;;;2.63;;
78960;SDS011;68362;45.970;12.646;2023-09-07T06:02:19;3.47;;;2.53;;
78960;SDS011;68362;45.970;12.646;2023-09-07T06:03:21;5.20;;;2.70;;
78960;SDS011;68362;45.970;12.646;2023-09-07T06:04:23;2.80;;;2.35;;
78960;SDS011;68362;45.970;12.646;2023-09-07T06:05:26;4.15;;;2.75;;
78960;SDS011;68362;45.970;12.646;2023-09-07T06:06:28;3.85;;;2.92;;
78960;SDS011;68362;45.970;12.646;2023-09-07T06:08:33;3.45;;;2.75;;
78960;SDS011;68362;45.970;12.646;2023-09-07T06:09:35;3.28;;;2.53;;
78960;SDS011;68362;45.970;12.646;2023-09-07T06:10:38;3.92;;;2.92;;
78960;SDS011;68362;45.970;12.646;2023-09-07T06:11:40;7.07;;;3.28;;
78960;SDS011;68362;45.970;12.646;2023-09-07T06:12:42;6.57;;;3.50;;
78960;SDS011;68362;45.970;12.646;2023-09-07T06:13:44;5.03;;;3.03;;
78960;SDS011;68362;45.970;12.646;2023-09-07T06:14:48;6.03;;;2.83;;
78960;SDS011;68362;45.970;12.646;2023-09-07T06:15:51;5.20;;;2.80;;
78960;SDS011;68362;45.970;12.646;2023-09-07T06:16:53;4.03;;;2.55;;
78960;SDS011;68362;45.970;12.646;2023-09-07T06:17:55;4.63;;;2.72;;
78960;SDS011;68362;45.970;12.646;2023-09-07T06:18:57;5.70;;;3.58;;
78960;SDS011;68362;45.970;12.646;2023-09-07T06:19:59;4.35;;;3.17;;
78960;SDS011;68362;45.970;12.646;2023-09-07T06:21:02;6.32;;;3.42;;
78960;SDS011;68362;45.970;12.646;2023-09-07T06:22:05;4.32;;;3.30;;
78960;SDS011;68362;45.970;12.646;2023-09-07T06:23:07;4.00;;;3.35;;
78960;SDS011;68362;45.970;12.646;2023-09-07T06:24:09;4.38;;;3.17;;
78960;SDS011;68362;45.970;12.646;2023-09-07T06:25:11;4.95;;;3.28;;